Time;durP1;ratioP1;P1;durP2;ratioP2;P2;SDS_P1;SDS_P2;PMS_P1;PMS_P2;Temp;Humidity;BMP_temperature;BMP_pressure;BME280_temperature;BME280_humidity;BME280_pressure;Samples;Min_cycle;Max_cycle;Signal;HPM_P1;HPM_P2
2022/05/14 00:01:38;;;;;;;4.40;4.20;;;;;;;10.77;85.42;101560.59;6106151;23;20426;-72
2022/05/14 00:04:05;;;;;;;4.40;4.20;;;;;;;11.09;85.67;101619.75;6079490;23;20089;-74
2022/05/14 00:06:32;;;;;;;4.45;4.25;;;;;;;10.68;85.94;101560.94;6112781;23;20504;-71
2022/05/14 00:09:04;;;;;;;4.70;4.50;;;;;;;11.01;86.29;101616.56;6075069;23;20018;-71
2022/05/14 00:14:19;;;;;;;6.15;5.85;;;;;;;10.54;87.35;101559.72;6113379;23;20612;-72
2022/05/14 00:16:46;;;;;;;4.30;4.10;;;;;;;10.57;87.29;101572.72;6113416;23;20659;-74
2022/05/14 00:19:13;;;;;;;4.40;4.20;;;;;;;10.05;87.73;101479.38;6088460;23;20088;-74
2022/05/14 00:21:40;;;;;;;5.93;5.63;;;;;;;10.60;88.07;101574.38;6116100;23;20715;-74
2022/05/14 00:24:08;;;;;;;4.30;4.10;;;;;;;10.14;88.20;101510.47;6074554;23;20050;-75
2022/05/14 00:26:35;;;;;;;5.10;4.90;;;;;;;10.37;88.78;101555.09;6090186;23;20049;-73
2022/05/14 00:29:03;;;;;;;4.40;4.20;;;;;;;10.67;88.45;101612.59;6075002;23;20473;-74
2022/05/14 00:31:30;;;;;;;4.30;4.10;;;;;;;8.83;87.75;101300.34;6089925;23;20018;-72
2022/05/14 00:33:57;;;;;;;4.43;4.22;;;;;;;10.70;88.89;101620.34;6068426;23;20018;-74
2022/05/14 00:36:23;;;;;;;4.35;4.15;;;;;;;10.48;89.49;101585.34;6084714;23;20026;-73
2022/05/14 00:38:51;;;;;;;5.03;4.82;;;;;;;10.19;90.06;101546.13;6099111;23;20130;-76
2022/05/14 00:41:18;;;;;;;4.40;4.20;;;;;;;10.49;89.57;101594.94;6115615;23;20021;-76
2022/05/14 00:43:56;;;;;;;5.70;5.47;;;;;;;10.53;90.77;101612.28;6075372;23;20411;-75
2022/05/14 00:46:36;;;;;;;4.32;4.13;;;;;;;9.84;91.26;101509.84;6101413;23;20034;-74
2022/05/14 00:49:03;;;;;;;4.30;4.10;;;;;;;10.01;90.99;101524.97;6079071;23;20041;-74
2022/05/14 00:51:34;;;;;;;4.78;4.47;;;;;;;10.44;91.64;101616.06;6073034;23;20026;-75
2022/05/14 00:54:06;;;;;;;4.70;4.50;;;;;;;10.29;91.04;101593.88;6085006;23;20016;-72
2022/05/14 00:56:36;;;;;;;4.75;4.55;;;;;;;10.38;91.48;101611.94;6112258;23;20033;-73
2022/05/14 00:59:13;;;;;;;4.75;4.55;;;;;;;9.90;91.30;101527.97;6084747;23;20030;-74
2022/05/14 01:01:40;;;;;;;6.10;5.80;;;;;;;9.86;91.86;101544.72;6080686;23;20010;-73
2022/05/14 01:04:09;;;;;;;4.72;4.53;;;;;;;9.93;92.51;101557.56;6083478;23;20030;-72
2022/05/14 01:06:39;;;;;;;4.80;4.60;;;;;;;10.25;93.13;101621.13;6083656;23;20014;-73
2022/05/14 01:09:06;;;;;;;4.35;4.15;;;;;;;10.21;93.38;101609.03;6103264;23;20024;-74
2022/05/14 01:11:35;;;;;;;4.82;4.63;;;;;;;10.14;93.66;101608.41;6079363;23;20096;-72
2022/05/14 01:14:03;;;;;;;4.70;4.50;;;;;;;9.73;94.09;101549.56;6098357;23;20994;-71
2022/05/14 01:16:30;;;;;;;4.10;3.90;;;;;;;9.58;94.03;101524.72;6079493;23;20006;-74
2022/05/14 01:18:56;;;;;;;4.40;4.20;;;;;;;9.13;94.11;101479.09;6108012;23;20029;-74
2022/05/14 01:21:29;;;;;;;4.15;3.95;;;;;;;10.00;94.70;101602.75;6087021;23;20615;-73
2022/05/14 01:26:47;;;;;;;7.45;7.05;;;;;;;10.03;94.41;101612.31;6095570;23;20042;-71
2022/05/14 01:29:21;;;;;;;4.20;4.00;;;;;;;10.06;92.86;101609.56;6087438;23;20035;-73
2022/05/14 01:31:49;;;;;;;4.20;4.00;;;;;;;9.64;93.43;101531.50;6104193;23;20109;-74
2022/05/14 01:34:25;;;;;;;4.45;4.25;;;;;;;10.10;92.40;101612.03;6087049;23;20028;-72
2022/05/14 01:36:52;;;;;;;4.20;4.00;;;;;;;9.87;91.60;101575.28;6092716;23;20021;-74
2022/05/14 01:39:19;;;;;;;4.25;4.05;;;;;;;9.80;91.96;101564.13;6110372;23;20021;-74
2022/05/14 01:41:45;;;;;;;5.82;5.53;;;;;;;10.22;91.03;101615.97;6114844;23;20017;-73
2022/05/14 01:44:12;;;;;;;4.30;4.10;;;;;;;9.99;91.23;101586.19;6114095;23;20036;-74
2022/05/14 01:46:39;;;;;;;4.25;4.05;;;;;;;10.17;89.95;101607.44;6085748;23;20020;-74
2022/05/14 01:49:05;;;;;;;4.68;4.47;;;;;;;9.91;89.23;101548.88;6107965;23;20055;-74
2022/05/14 01:51:32;;;;;;;4.18;3.97;;;;;;;8.24;89.14;101295.34;6072547;23;20035;-72
2022/05/14 01:53:59;;;;;;;4.32;4.13;;;;;;;9.51;89.72;101497.88;6095272;23;20211;-73
2022/05/14 01:56:25;;;;;;;4.47;4.28;;;;;;;9.84;88.66;101568.34;6098111;23;20024;-71
2022/05/14 01:58:52;;;;;;;4.53;4.32;;;;;;;9.92;89.74;101592.56;6082425;23;20231;-74
2022/05/14 02:01:21;;;;;;;4.10;3.90;;;;;;;9.61;89.74;101547.34;6098534;23;20462;-75
2022/05/14 02:03:51;;;;;;;5.25;5.05;;;;;;;10.01;89.80;101617.59;6068996;23;20088;-74
2022/05/14 02:06:18;;;;;;;4.28;4.07;;;;;;;9.84;90.37;101605.06;6077981;23;20020;-73
2022/05/14 02:08:44;;;;;;;5.63;5.32;;;;;;;9.88;90.53;101619.81;6084984;23;20070;-72
2022/05/14 02:11:13;;;;;;;4.20;4.00;;;;;;;9.01;90.85;101502.22;6072243;23;20017;-73
2022/05/14 02:13:41;;;;;;;5.57;5.38;;;;;;;9.77;91.18;101620.16;6106718;23;20020;-74
2022/05/14 02:16:08;;;;;;;5.25;5.05;;;;;;;9.77;92.03;101617.53;6092114;23;20475;-74
2022/05/14 02:18:36;;;;;;;4.30;4.10;;;;;;;9.73;92.21;101617.69;6098602;23;20018;-75
2022/05/14 02:21:03;;;;;;;4.10;3.90;;;;;;;9.71;91.43;101614.28;6097294;23;20028;-75
2022/05/14 02:23:31;;;;;;;3.90;3.80;;;;;;;9.54;91.92;101586.88;6082559;23;20061;-74
2022/05/14 02:25:58;;;;;;;4.05;3.85;;;;;;;9.61;92.26;101608.47;6083121;23;20173;-75
2022/05/14 02:28:25;;;;;;;4.10;3.90;;;;;;;9.59;93.02;101624.25;6069466;23;20397;-74
2022/05/14 02:30:51;;;;;;;4.72;4.53;;;;;;;9.43;93.20;101598.63;6103666;23;20053;-72
2022/05/14 02:33:17;;;;;;;4.00;3.80;;;;;;;8.96;93.59;101537.25;6078944;23;20154;-74
2022/05/14 02:35:44;;;;;;;5.60;5.40;;;;;;;8.89;94.03;101529.63;6098099;23;20009;-74
2022/05/14 02:38:11;;;;;;;3.80;3.70;;;;;;;9.45;93.66;101623.84;6083981;23;20093;-73
2022/05/14 02:40:37;;;;;;;4.75;4.55;;;;;;;9.26;94.62;101605.28;6062305;23;20022;-74
2022/05/14 02:43:04;;;;;;;3.88;3.75;;;;;;;9.40;94.98;101625.75;6101703;23;20029;-74
2022/05/14 02:45:30;;;;;;;4.10;3.90;;;;;;;8.78;94.62;101533.47;6078972;23;20017;-74
2022/05/14 02:47:57;;;;;;;4.47;4.28;;;;;;;8.87;94.97;101544.53;6082665;23;20014;-75
2022/05/14 02:50:24;;;;;;;3.90;3.70;;;;;;;8.97;94.91;101580.84;6106675;23;20025;-74
2022/05/14 02:52:51;;;;;;;5.20;5.00;;;;;;;8.99;95.80;101591.28;6063228;23;20021;-74
2022/05/14 02:55:18;;;;;;;4.20;4.00;;;;;;;8.79;95.71;101550.84;6075298;23;20050;-74
2022/05/14 02:57:44;;;;;;;5.65;5.40;;;;;;;8.61;95.08;101534.88;6081892;23;20337;-75
2022/05/14 03:00:16;;;;;;;4.10;3.90;;;;;;;9.09;95.33;101621.50;6077406;23;20036;-73
2022/05/14 03:02:43;;;;;;;5.45;5.25;;;;;;;8.83;95.40;101575.19;6082068;23;20404;-73
2022/05/14 03:05:12;;;;;;;4.00;3.80;;;;;;;8.24;94.74;101484.50;6100706;23;20032;-72
2022/05/14 03:07:40;;;;;;;5.32;5.10;;;;;;;9.11;94.91;101635.41;6070945;23;20036;-75
2022/05/14 03:10:08;;;;;;;3.80;3.70;;;;;;;8.52;95.52;101539.50;6077875;23;20034;-75
2022/05/14 03:12:34;;;;;;;4.35;4.15;;;;;;;9.04;94.73;101620.81;6097105;23;20017;-74
2022/05/14 03:15:01;;;;;;;4.00;3.80;;;;;;;8.65;95.51;101581.81;6082321;23;20400;-75
2022/05/14 03:17:27;;;;;;;4.00;3.80;;;;;;;8.96;95.68;101625.38;6095948;23;20021;-75
2022/05/14 03:19:54;;;;;;;4.20;4.00;;;;;;;8.75;95.92;101600.72;6082855;23;20017;-75
2022/05/14 03:22:20;;;;;;;4.00;3.80;;;;;;;8.85;96.07;101624.88;6075252;23;20028;-75
2022/05/14 03:24:47;;;;;;;5.45;5.25;;;;;;;8.75;96.93;101611.19;6097833;23;20032;-75
2022/05/14 03:27:13;;;;;;;4.07;3.88;;;;;;;7.50;96.24;101413.44;6103038;23;20029;-73
2022/05/14 03:29:40;;;;;;;5.00;4.80;;;;;;;8.22;97.22;101524.66;6078359;23;20036;-73
2022/05/14 03:32:07;;;;;;;4.07;3.88;;;;;;;8.91;96.76;101619.44;6105563;23;20019;-72
2022/05/14 03:34:34;;;;;;;4.07;3.90;;;;;;;8.43;95.95;101537.13;6076007;23;20028;-73
2022/05/14 03:37:00;;;;;;;4.10;3.90;;;;;;;7.67;95.67;101414.72;6063852;23;20025;-75
2022/05/14 03:39:26;;;;;;;4.57;4.38;;;;;;;7.76;95.24;101435.38;6097708;23;20021;-75
2022/05/14 03:41:53;;;;;;;4.00;3.80;;;;;;;8.88;94.89;101617.78;6067927;23;20026;-75
2022/05/14 03:44:19;;;;;;;4.03;3.83;;;;;;;8.75;95.15;101606.81;6091298;23;20021;-72
2022/05/14 03:46:46;;;;;;;5.38;5.18;;;;;;;8.86;95.03;101618.72;6077221;23;20038;-72
2022/05/14 03:49:13;;;;;;;4.00;3.80;;;;;;;8.61;94.57;101576.75;6093684;23;20037;-73
2022/05/14 03:51:39;;;;;;;5.00;4.80;;;;;;;8.67;94.67;101597.50;6068651;23;20010;-74
2022/05/14 03:54:06;;;;;;;4.10;3.90;;;;;;;8.86;94.93;101623.97;6099453;23;20017;-75
2022/05/14 03:56:32;;;;;;;3.88;3.75;;;;;;;8.55;94.99;101570.78;6081433;23;20080;-72
2022/05/14 03:58:59;;;;;;;4.50;4.10;;;;;;;8.75;95.01;101611.19;6081255;23;20014;-74
2022/05/14 04:01:25;;;;;;;4.10;3.90;;;;;;;8.93;95.24;101621.13;6084761;23;20032;-74
2022/05/14 04:03:51;;;;;;;3.80;3.70;;;;;;;8.92;94.13;101618.53;6096941;23;20029;-74
2022/05/14 04:06:18;;;;;;;3.90;3.70;;;;;;;8.95;91.97;101631.53;6081883;23;20040;-72
2022/05/14 04:08:44;;;;;;;5.40;5.20;;;;;;;8.95;92.25;101597.50;6076309;23;20034;-75
2022/05/14 04:11:11;;;;;;;3.83;3.70;;;;;;;9.35;91.95;101630.31;6106797;23;20020;-74
2022/05/14 04:13:37;;;;;;;4.97;4.78;;;;;;;8.96;90.50;101545.09;6072306;23;20018;-74
2022/05/14 04:16:04;;;;;;;6.25;4.88;;;;;;;9.23;89.44;101587.03;6113103;23;20018;-72
2022/05/14 04:18:31;;;;;;;3.97;3.78;;;;;;;9.78;88.56;101629.75;6064184;23;20098;-73
2022/05/14 04:20:59;;;;;;;3.90;3.80;;;;;;;9.99;87.77;101641.25;6109301;23;20089;-75
2022/05/14 04:23:28;;;;;;;4.07;3.88;;;;;;;10.21;87.35;101637.88;6080177;23;20034;-75
2022/05/14 04:25:56;;;;;;;4.10;3.90;;;;;;;9.43;86.00;101462.38;6075897;23;20138;-74
2022/05/14 04:28:23;;;;;;;4.32;4.13;;;;;;;11.09;84.04;101645.16;6108639;23;20109;-72
2022/05/14 04:30:50;;;;;;;4.95;4.75;;;;;;;11.21;81.78;101581.63;6064594;23;20376;-73
2022/05/14 04:33:17;;;;;;;4.30;4.10;;;;;;;11.97;79.57;101645.09;6081319;23;20026;-74
2022/05/14 04:35:44;;;;;;;5.15;4.95;;;;;;;12.36;77.13;101646.91;6077298;23;20028;-74
2022/05/14 04:38:11;;;;;;;4.20;4.00;;;;;;;12.67;75.72;101642.88;6091890;23;20267;-74
2022/05/14 04:40:38;;;;;;;4.75;4.55;;;;;;;13.06;74.03;101650.72;6105323;23;20125;-73
2022/05/14 04:43:06;;;;;;;4.50;4.30;;;;;;;13.40;71.32;101628.03;6078937;23;20077;-73
2022/05/14 04:45:33;;;;;;;4.78;4.57;;;;;;;14.00;69.77;101650.56;6086930;23;20396;-73
2022/05/14 04:48:00;;;;;;;4.80;4.57;;;;;;;14.10;67.93;101612.19;6112391;23;20092;-73
2022/05/14 04:50:26;;;;;;;4.70;4.50;;;;;;;14.11;66.30;101593.66;6088302;23;20033;-70
2022/05/14 04:52:53;;;;;;;5.25;5.05;;;;;;;14.64;65.13;101663.03;6090773;23;20586;-73
2022/05/14 04:55:19;;;;;;;4.70;4.50;;;;;;;14.73;64.33;101657.28;6074490;23;20421;-72
2022/05/14 04:57:46;;;;;;;5.95;5.65;;;;;;;14.80;63.87;101662.22;6077704;23;20025;-73
2022/05/14 05:00:14;;;;;;;5.00;4.60;;;;;;;14.90;63.34;101695.97;6111998;23;20026;-73
2022/05/14 05:05:29;;;;;;;4.95;4.75;;;;;;;15.60;60.78;101666.53;6113267;23;20024;-74
2022/05/14 05:07:56;;;;;;;4.90;4.70;;;;;;;15.67;61.08;101667.84;6083887;23;20009;-73
2022/05/14 05:10:23;;;;;;;4.90;4.60;;;;;;;15.41;61.30;101642.06;6090826;23;20065;-74
2022/05/14 05:12:49;;;;;;;6.00;5.70;;;;;;;15.49;61.18;101639.81;6070543;23;20089;-75
2022/05/14 05:15:16;;;;;;;4.85;4.65;;;;;;;16.02;60.36;101677.38;6067433;23;20025;-72
2022/05/14 05:17:43;;;;;;;5.90;5.60;;;;;;;16.40;58.76;101675.06;6107396;23;20087;-71
2022/05/14 05:20:10;;;;;;;4.80;4.60;;;;;;;16.84;56.31;101662.66;6077861;23;20434;-71
2022/05/14 05:22:37;;;;;;;6.50;6.18;;;;;;;16.59;55.22;101562.63;6072526;23;20038;-71
2022/05/14 05:25:05;;;;;;;5.10;4.90;;;;;;;17.08;53.52;101607.22;6094408;23;20096;-70
2022/05/14 05:27:32;;;;;;;5.35;5.15;;;;;;;17.69;52.40;101632.31;6082762;23;20017;-71
2022/05/14 05:29:58;;;;;;;5.00;4.80;;;;;;;18.20;51.63;101678.50;6062322;23;20228;-73
2022/05/14 05:32:25;;;;;;;5.40;5.10;;;;;;;17.97;50.66;101651.72;6085357;23;20089;-73
2022/05/14 05:34:51;;;;;;;5.15;4.95;;;;;;;18.14;49.23;101593.00;6090934;23;20312;-71
2022/05/14 05:37:18;;;;;;;5.30;5.10;;;;;;;18.52;47.60;101686.91;6071788;23;20614;-71
2022/05/14 05:39:44;;;;;;;7.03;6.72;;;;;;;18.89;47.47;101673.72;6105664;23;20021;-72
2022/05/14 05:42:10;;;;;;;5.22;5.03;;;;;;;19.01;45.83;101691.44;6070159;23;20213;-71
2022/05/14 05:44:41;;;;;;;7.13;6.82;;;;;;;19.34;45.72;101700.59;6102128;18;20022;-74
2022/05/14 05:47:08;;;;;;;5.18;4.97;;;;;;;19.35;46.11;101696.13;6065689;23;20596;-72
2022/05/14 05:49:37;;;;;;;5.68;5.45;;;;;;;19.48;46.53;101692.47;6088476;23;20028;-71
2022/05/14 05:52:04;;;;;;;5.28;5.07;;;;;;;19.53;45.67;101694.78;6058493;23;20029;-71
2022/05/14 05:57:15;;;;;;;5.30;5.10;;;;;;;18.84;44.53;101698.00;6066301;23;20251;-71
2022/05/14 05:59:42;;;;;;;6.30;6.00;;;;;;;18.40;46.84;101709.03;6104863;23;20021;-72
2022/05/14 06:02:08;;;;;;;5.50;5.20;;;;;;;18.46;47.08;101628.88;6071882;23;20257;-72
2022/05/14 06:04:36;;;;;;;5.30;5.10;;;;;;;19.56;45.37;101710.50;6085751;23;20033;-73
2022/05/14 06:07:04;;;;;;;5.50;5.30;;;;;;;19.09;45.02;101657.16;6052352;23;20060;-71
2022/05/14 06:09:32;;;;;;;5.10;4.90;;;;;;;19.08;45.12;101699.81;6085805;23;20638;-72
2022/05/14 06:11:59;;;;;;;6.85;5.15;;;;;;;18.58;45.82;101705.09;6086528;23;20502;-72
2022/05/14 06:14:27;;;;;;;5.25;5.05;;;;;;;17.20;50.30;101675.38;6085714;23;20037;-72
2022/05/14 06:16:54;;;;;;;5.90;5.60;;;;;;;16.82;50.92;101643.34;6107932;23;20026;-73
2022/05/14 06:19:20;;;;;;;5.32;5.13;;;;;;;17.09;51.08;101715.00;6071810;23;20038;-71
2022/05/14 06:21:47;;;;;;;5.38;5.18;;;;;;;16.31;54.08;101717.97;6069420;23;20560;-71
2022/05/14 06:24:13;;;;;;;5.38;5.10;;;;;;;16.10;53.71;101670.66;6099006;23;20024;-72
2022/05/14 06:26:40;;;;;;;5.05;4.85;;;;;;;16.47;53.75;101717.91;6084603;23;20315;-71
2022/05/14 06:29:07;;;;;;;5.47;5.10;;;;;;;15.99;54.36;101669.59;6106143;23;20016;-73
2022/05/14 06:31:34;;;;;;;5.13;4.93;;;;;;;15.75;55.69;101699.22;6081218;23;20037;-72
2022/05/14 06:34:00;;;;;;;5.38;5.10;;;;;;;15.57;55.87;101645.53;6049911;23;20471;-73
2022/05/14 06:36:27;;;;;;;5.20;5.00;;;;;;;16.19;55.37;101716.06;6107964;23;20096;-72
2022/05/14 06:38:54;;;;;;;5.88;5.57;;;;;;;15.14;58.51;101690.28;6069234;23;20078;-70
2022/05/14 06:41:20;;;;;;;5.15;4.95;;;;;;;14.90;59.83;101679.28;6077880;23;20025;-72
2022/05/14 06:43:47;;;;;;;6.38;6.07;;;;;;;15.69;57.27;101724.19;6083290;23;20013;-73
2022/05/14 06:46:13;;;;;;;5.50;5.20;;;;;;;15.03;57.17;101623.94;6054322;23;20026;-70
2022/05/14 06:48:40;;;;;;;6.93;6.53;;;;;;;15.60;56.68;101686.84;6076190;23;20176;-74
2022/05/14 06:51:10;;;;;;;4.95;4.75;;;;;;;15.61;56.50;101654.97;6081254;23;20028;-73
2022/05/14 06:53:40;;;;;;;5.47;5.25;;;;;;;15.68;56.94;101725.16;6064076;23;20022;-70
2022/05/14 06:56:08;;;;;;;5.30;5.10;;;;;;;15.31;59.24;101715.78;6111127;23;20029;-70
2022/05/14 06:58:38;;;;;;;8.00;7.18;;;;;;;15.89;57.50;101740.75;6076300;23;20208;-72
2022/05/14 07:01:05;;;;;;;5.03;4.82;;;;;;;16.20;55.74;101742.47;6073167;23;20046;-72
2022/05/14 07:06:39;;;;;;;5.05;4.85;;;;;;;16.53;55.34;101730.78;6074296;23;20034;-70
2022/05/14 07:09:16;;;;;;;4.90;4.70;;;;;;;16.09;56.61;101734.31;6103997;23;20043;-71
2022/05/14 07:11:45;;;;;;;6.43;6.13;;;;;;;15.10;56.00;101560.06;6077532;23;20017;-70
2022/05/14 07:14:16;;;;;;;5.10;4.90;;;;;;;15.29;58.38;101707.09;6106079;23;20509;-71
2022/05/14 07:16:46;;;;;;;6.75;6.45;;;;;;;15.38;61.07;101738.31;6085904;23;20037;-71
2022/05/14 07:19:13;;;;;;;5.32;5.13;;;;;;;15.95;58.83;101737.75;6108843;23;20065;-71
2022/05/14 07:21:42;;;;;;;5.70;5.47;;;;;;;16.17;58.05;101745.28;6078417;23;20074;-72
2022/05/14 07:24:15;;;;;;;4.90;4.70;;;;;;;16.09;56.83;101718.41;6107201;23;20025;-71
2022/05/14 07:26:43;;;;;;;4.97;4.78;;;;;;;16.11;56.39;101738.56;6079060;23;20060;-70
2022/05/14 07:29:15;;;;;;;5.10;4.90;;;;;;;16.08;57.53;101691.09;6087916;23;20009;-71
2022/05/14 07:31:41;;;;;;;5.32;5.13;;;;;;;15.45;58.19;101591.53;6083402;23;20035;-70
2022/05/14 07:34:08;;;;;;;5.00;4.80;;;;;;;16.39;57.75;101710.44;6083798;23;20013;-70
2022/05/14 07:36:54;;;;;;;5.20;5.00;;;;;;;16.39;57.16;101689.22;6053318;23;20018;-70
2022/05/14 07:39:23;;;;;;;6.30;6.00;;;;;;;16.09;57.58;101668.94;6079576;23;20014;-70
2022/05/14 07:41:55;;;;;;;5.00;4.80;;;;;;;16.71;56.00;101715.56;6068519;23;20299;-72
2022/05/14 07:44:25;;;;;;;5.00;4.80;;;;;;;16.95;57.33;101732.63;6110360;23;20029;-72
2022/05/14 07:46:52;;;;;;;5.95;5.65;;;;;;;17.13;56.60;101721.81;6079983;23;20030;-73
2022/05/14 07:49:22;;;;;;;5.10;4.90;;;;;;;17.27;56.08;101720.94;6091954;23;20021;-72
2022/05/14 07:51:48;;;;;;;6.72;6.43;;;;;;;17.45;54.94;101725.03;6077954;23;20420;-71
2022/05/14 07:54:15;;;;;;;5.85;5.55;;;;;;;17.31;54.50;101698.56;6037184;23;20030;-73
2022/05/14 07:56:43;;;;;;;6.20;5.90;;;;;;;17.38;54.73;101730.84;6100060;23;20251;-70
2022/05/14 07:59:09;;;;;;;7.00;6.60;;;;;;;17.30;55.12;101679.13;6079319;23;20452;-70
2022/05/14 08:01:35;;;;;;;5.97;5.47;;;;;;;17.53;55.70;101703.31;6103758;23;20025;-70
2022/05/14 08:04:02;;;;;;;5.25;4.95;;;;;;;17.31;54.72;101715.31;6069263;23;20045;-70
2022/05/14 08:06:28;;;;;;;5.10;4.90;;;;;;;17.37;55.22;101711.41;6080938;23;20033;-71
2022/05/14 08:08:56;;;;;;;5.57;5.18;;;;;;;17.13;54.98;101647.53;6102210;23;20155;-71
2022/05/14 08:11:22;;;;;;;5.45;5.15;;;;;;;17.49;55.80;101680.59;6080258;23;20022;-71
2022/05/14 08:13:54;;;;;;;9.32;6.25;;;;;;;17.76;54.91;101701.81;6100123;23;20244;-72
2022/05/14 08:16:22;;;;;;;5.65;5.35;;;;;;;17.68;54.31;101681.06;6075663;23;20627;-72
2022/05/14 08:18:49;;;;;;;6.30;6.00;;;;;;;18.03;54.81;101716.88;6102588;23;20376;-72
2022/05/14 08:26:51;;;;;;;6.88;6.47;;;;;;;18.23;53.59;101707.56;6081339;23;20631;-71
2022/05/14 08:29:19;;;;;;;6.18;5.80;;;;;;;18.34;52.77;101719.16;6079247;23;20022;-73
2022/05/14 08:31:46;;;;;;;6.78;6.47;;;;;;;18.25;53.70;101690.53;6069171;23;20617;-73
2022/05/14 08:34:12;;;;;;;5.20;5.00;;;;;;;18.62;52.30;101700.41;6079552;23;20014;-71
2022/05/14 08:36:39;;;;;;;5.85;5.60;;;;;;;18.14;53.36;101704.56;6099954;23;20104;-73
2022/05/14 08:39:05;;;;;;;5.30;5.00;;;;;;;18.37;52.86;101718.06;6077670;23;20018;-72
2022/05/14 08:41:36;;;;;;;5.57;5.28;;;;;;;17.13;54.38;101522.88;6103605;23;20086;-70
2022/05/14 08:44:10;;;;;;;5.10;4.90;;;;;;;18.26;54.83;101723.25;6080300;23;20120;-71
2022/05/14 08:46:40;;;;;;;5.30;5.07;;;;;;;18.65;52.99;101717.00;6098536;23;20041;-71
2022/05/14 08:49:13;;;;;;;4.88;4.68;;;;;;;18.22;52.54;101599.56;6071422;23;20082;-70
2022/05/14 08:51:44;;;;;;;6.50;6.20;;;;;;;17.60;53.10;101497.59;6065735;23;20245;-70
2022/05/14 08:54:11;;;;;;;5.30;5.10;;;;;;;18.71;52.68;101692.66;6073071;23;20031;-73
2022/05/14 08:56:47;;;;;;;6.22;5.93;;;;;;;19.10;52.09;101719.19;6078270;23;20026;-73
2022/05/14 08:59:32;;;;;;;5.03;4.82;;;;;;;19.35;52.34;101715.63;6065063;23;20409;-73
2022/05/14 09:02:12;;;;;;;5.25;5.05;;;;;;;19.51;51.10;101712.69;6064923;23;20022;-71
2022/05/14 09:04:39;;;;;;;6.68;6.38;;;;;;;19.23;50.84;101658.81;6100040;23;20218;-74
2022/05/14 09:07:06;;;;;;;5.10;4.90;;;;;;;19.58;50.88;101710.41;6068887;23;20037;-72
2022/05/14 09:09:32;;;;;;;6.53;6.20;;;;;;;19.19;50.46;101648.50;6070298;23;20014;-72
2022/05/14 09:12:03;;;;;;;5.18;4.97;;;;;;;19.23;51.08;101705.88;6085545;23;20010;-72
2022/05/14 09:14:38;;;;;;;5.93;5.63;;;;;;;19.19;52.55;101704.38;6070728;23;20024;-70
2022/05/14 09:17:15;;;;;;;5.43;5.13;;;;;;;19.44;52.79;101712.25;6108594;23;20194;-70
2022/05/14 09:19:44;;;;;;;6.55;6.25;;;;;;;19.65;51.06;101709.84;6074117;23;20279;-71
2022/05/14 09:22:22;;;;;;;5.70;5.40;;;;;;;19.80;51.97;101702.53;6108958;23;20068;-70
2022/05/14 09:24:51;;;;;;;6.72;6.38;;;;;;;20.03;50.87;101692.81;6071742;23;20024;-71
2022/05/14 09:27:25;;;;;;;5.60;5.20;;;;;;;20.03;48.96;101644.00;6106723;23;20416;-72
2022/05/14 09:29:58;;;;;;;5.18;4.97;;;;;;;19.84;48.85;101656.03;6076194;23;20340;-71
2022/05/14 09:32:38;;;;;;;5.97;5.68;;;;;;;19.67;51.52;101645.81;6077935;23;20078;-71
2022/05/14 09:35:10;;;;;;;8.52;5.50;;;;;;;20.27;49.86;101702.56;6084200;23;20089;-71
2022/05/14 09:38:06;;;;;;;6.22;5.82;;;;;;;19.69;50.76;101707.78;6060188;23;20235;-70
2022/05/14 09:40:33;;;;;;;6.25;5.85;;;;;;;19.79;51.11;101703.50;6113104;23;20014;-71
2022/05/14 09:43:12;;;;;;;5.78;5.47;;;;;;;20.28;50.10;101710.41;6063320;23;20021;-73
2022/05/14 09:45:55;;;;;;;7.03;6.63;;;;;;;20.08;50.28;101700.44;6071070;23;20255;-70
2022/05/14 09:48:29;;;;;;;5.32;5.10;;;;;;;20.43;49.77;101699.56;6113509;23;20021;-71
2022/05/14 09:50:58;;;;;;;5.63;5.32;;;;;;;20.42;49.87;101706.69;6076854;23;20243;-71
2022/05/14 09:53:33;;;;;;;6.00;5.70;;;;;;;18.94;49.89;101511.97;6079119;23;20030;-70
2022/05/14 09:56:05;;;;;;;5.43;5.20;;;;;;;20.33;50.62;101699.41;6082516;23;20033;-72
2022/05/14 09:58:52;;;;;;;5.30;5.07;;;;;;;20.39;49.77;101692.75;6073451;23;20032;-71
2022/05/14 10:01:29;;;;;;;5.53;5.22;;;;;;;20.09;50.85;101692.34;6100492;23;20466;-73
2022/05/14 10:04:05;;;;;;;5.13;4.93;;;;;;;19.88;49.73;101628.19;6078829;23;20431;-71
2022/05/14 10:06:46;;;;;;;5.07;4.88;;;;;;;20.64;50.02;101654.34;6107196;23;20009;-70
2022/05/14 10:09:39;;;;;;;5.88;5.38;;;;;;;20.78;48.65;101629.25;6074434;23;20034;-71
2022/05/14 10:12:20;;;;;;;;;;;;;;;21.20;47.46;101688.13;6078443;23;20014;-71
2022/05/14 10:15:13;;;;;;;6.10;5.80;;;;;;;21.50;45.54;101692.78;6081713;23;20074;-71
2022/05/14 10:18:04;;;;;;;6.55;6.25;;;;;;;21.48;46.38;101634.16;6072590;23;20018;-71
2022/05/14 10:20:35;;;;;;;6.80;6.30;;;;;;;21.20;46.33;101688.94;6083499;23;20041;-71
2022/05/14 10:29:02;;;;;;;6.50;6.20;;;;;;;21.27;45.57;101682.16;6103251;23;20039;-72
2022/05/14 10:31:37;;;;;;;6.65;6.07;;;;;;;21.66;45.96;101681.69;6054920;23;20425;-71
2022/05/14 10:34:12;;;;;;;6.18;5.40;;;;;;;21.34;45.83;101674.47;6074978;23;20028;-71
2022/05/14 10:37:06;;;;;;;6.93;6.53;;;;;;;21.86;43.67;101685.34;6074325;23;20025;-73
2022/05/14 10:39:55;;;;;;;5.30;5.07;;;;;;;21.73;43.34;101680.19;6091036;23;20037;-71
2022/05/14 10:42:47;;;;;;;5.50;5.20;;;;;;;20.45;46.45;101693.13;6076305;23;20590;-71
2022/05/14 10:45:20;;;;;;;5.35;5.10;;;;;;;20.78;46.20;101666.59;6094533;23;20563;-71
2022/05/14 10:48:08;;;;;;;6.68;6.28;;;;;;;21.74;45.73;101683.72;6082065;23;20036;-71
2022/05/14 10:50:34;;;;;;;6.05;5.75;;;;;;;22.20;43.15;101639.69;6082586;23;20017;-71
2022/05/14 10:53:06;;;;;;;5.53;5.22;;;;;;;23.01;40.82;101686.09;6077212;23;20284;-72
2022/05/14 10:55:42;;;;;;;6.03;5.63;;;;;;;22.70;41.27;101680.75;6105795;23;20231;-71
2022/05/14 10:58:19;;;;;;;5.57;5.30;;;;;;;22.61;40.93;101641.47;6068782;23;20009;-70
2022/05/14 11:00:46;;;;;;;6.50;6.20;;;;;;;23.46;41.18;101682.09;6078126;23;20029;-72
2022/05/14 11:03:31;;;;;;;6.03;5.45;;;;;;;23.98;39.32;101682.66;6079657;23;20026;-72
2022/05/14 11:06:03;;;;;;;5.60;5.20;;;;;;;23.64;40.44;101684.91;6059905;23;21120;-72
2022/05/14 11:08:33;;;;;;;5.55;5.25;;;;;;;23.47;40.78;101681.94;6086247;23;20009;-71
2022/05/14 11:11:09;;;;;;;5.30;5.10;;;;;;;23.83;41.03;101678.72;6077416;23;20442;-72
2022/05/14 11:13:36;;;;;;;6.07;5.80;;;;;;;23.84;39.83;101665.16;6109288;23;20212;-73
2022/05/14 11:16:13;;;;;;;5.90;5.60;;;;;;;24.09;40.11;101685.19;6078815;23;20026;-71
2022/05/14 11:18:45;;;;;;;6.70;6.40;;;;;;;24.07;39.51;101684.47;6103229;23;20437;-71
2022/05/14 11:21:13;;;;;;;6.30;5.90;;;;;;;23.76;39.05;101675.72;6079415;23;21515;-70
2022/05/14 11:23:54;;;;;;;6.32;6.03;;;;;;;23.30;39.12;101629.91;6093606;23;20025;-72
2022/05/14 11:26:22;;;;;;;5.60;5.38;;;;;;;23.96;39.03;101647.09;6073284;23;20028;-72
2022/05/14 11:29:01;;;;;;;7.72;7.13;;;;;;;24.18;38.12;101667.34;6083250;23;20036;-71
2022/05/14 11:31:31;;;;;;;5.50;5.30;;;;;;;23.86;39.11;101663.19;6075327;23;20154;-73
2022/05/14 11:34:01;;;;;;;5.25;5.05;;;;;;;23.40;39.70;101655.84;6103568;23;20113;-73
2022/05/14 11:36:31;;;;;;;5.30;5.05;;;;;;;23.34;39.06;101635.84;6080428;23;20029;-71
2022/05/14 11:39:23;;;;;;;6.03;5.72;;;;;;;24.03;37.74;101642.81;6070188;23;20025;-71
2022/05/14 11:41:53;;;;;;;6.13;5.63;;;;;;;23.81;39.15;101566.25;6109149;23;20047;-71
2022/05/14 11:44:44;;;;;;;5.53;5.30;;;;;;;23.61;37.89;101481.53;6087192;23;20035;-71
2022/05/14 11:47:32;;;;;;;5.68;5.38;;;;;;;24.44;37.60;101667.56;6058304;23;20022;-71
2022/05/14 11:50:01;;;;;;;5.40;5.20;;;;;;;24.31;35.59;101676.91;6102872;23;20028;-73
2022/05/14 11:52:49;;;;;;;5.85;5.55;;;;;;;24.28;35.50;101675.38;6072049;23;20093;-72
2022/05/14 11:55:20;;;;;;;5.90;5.50;;;;;;;23.96;36.18;101670.38;6073679;23;20203;-71
2022/05/14 11:58:13;;;;;;;6.87;6.57;;;;;;;23.47;37.48;101639.09;6102599;23;20277;-72
2022/05/14 12:00:42;;;;;;;6.32;6.03;;;;;;;22.84;38.14;101601.09;6071558;23;20024;-73
2022/05/14 12:03:24;;;;;;;5.90;5.60;;;;;;;23.70;38.75;101662.91;6064950;23;20073;-70
2022/05/14 12:06:07;;;;;;;6.88;6.55;;;;;;;23.80;38.26;101658.41;6104508;23;20010;-72